createdAt,value
2019-02-25T00:00:01.645Z,3.60
2019-02-25T00:01:07.118Z,3.60
2019-02-25T00:02:12.440Z,3.60
2019-02-25T00:03:16.082Z,3.50
2019-02-25T00:04:19.676Z,3.50
2019-02-25T00:05:23.262Z,3.50
2019-02-25T00:06:26.989Z,3.50
2019-02-25T00:07:30.594Z,3.40
2019-02-25T00:08:34.224Z,3.40
2019-02-25T00:09:37.861Z,3.40
2019-02-25T00:10:41.482Z,3.40
2019-02-25T00:11:45.115Z,3.40
2019-02-25T00:12:48.713Z,3.40
2019-02-25T00:13:52.316Z,3.40
2019-02-25T00:14:55.899Z,3.40
2019-02-25T00:15:59.486Z,3.40
2019-02-25T00:17:03.176Z,3.40
2019-02-25T00:18:06.984Z,3.50
2019-02-25T00:19:10.588Z,3.50
2019-02-25T00:20:14.366Z,3.50
2019-02-25T00:21:17.955Z,3.50
2019-02-25T00:22:21.546Z,3.60
2019-02-25T00:23:25.202Z,3.60
2019-02-25T00:24:28.785Z,3.60
2019-02-25T00:25:32.485Z,3.60
2019-02-25T00:26:36.248Z,3.60
2019-02-25T00:27:39.792Z,3.60
2019-02-25T00:28:43.419Z,3.60
2019-02-25T00:29:47.244Z,3.60
2019-02-25T00:30:50.906Z,3.60
2019-02-25T00:31:54.487Z,3.60
2019-02-25T00:32:58.098Z,3.60
2019-02-25T00:34:01.815Z,3.60
2019-02-25T00:35:06.258Z,3.60
2019-02-25T00:36:09.856Z,3.60
2019-02-25T00:37:13.442Z,3.50
2019-02-25T00:38:17.085Z,3.50
2019-02-25T00:39:20.702Z,3.40
2019-02-25T00:40:24.371Z,3.40
2019-02-25T00:41:28.080Z,3.30
2019-02-25T00:42:31.679Z,3.40
2019-02-25T00:43:35.357Z,3.30
2019-02-25T00:44:39.044Z,3.40
2019-02-25T00:45:42.715Z,3.30
2019-02-25T00:46:46.373Z,3.20
2019-02-25T00:47:49.966Z,3.20
2019-02-25T00:48:53.543Z,3.10
2019-02-25T00:49:57.124Z,3.10
2019-02-25T00:51:00.823Z,3.10
2019-02-25T00:52:04.454Z,3.10
2019-02-25T00:53:08.115Z,3.10
2019-02-25T00:54:11.711Z,3.00
2019-02-25T00:55:15.466Z,2.80
2019-02-25T00:56:19.113Z,2.80
2019-02-25T00:57:22.694Z,2.90
2019-02-25T00:58:26.265Z,2.90
2019-02-25T00:59:29.836Z,2.90
2019-02-25T01:00:33.444Z,3.00
2019-02-25T01:01:37.152Z,3.00
2019-02-25T01:02:40.814Z,3.00
2019-02-25T01:03:44.476Z,3.00
2019-02-25T01:04:48.179Z,2.90
2019-02-25T01:05:51.931Z,2.90
2019-02-25T01:06:55.530Z,2.90
2019-02-25T01:07:59.289Z,2.90
2019-02-25T01:09:04.165Z,3.00
2019-02-25T01:10:10.312Z,2.90
2019-02-25T01:11:13.964Z,2.80
2019-02-25T01:12:17.622Z,2.80
2019-02-25T01:13:21.272Z,2.90
2019-02-25T01:14:24.893Z,2.80
2019-02-25T01:15:28.525Z,2.90
2019-02-25T01:16:32.135Z,2.90
2019-02-25T01:17:35.778Z,2.90
2019-02-25T01:18:39.432Z,2.90
2019-02-25T01:19:43.083Z,2.90
2019-02-25T01:20:46.676Z,2.90
2019-02-25T01:21:50.290Z,2.90
2019-02-25T01:22:53.907Z,2.90
2019-02-25T01:23:57.524Z,2.90
2019-02-25T01:25:01.124Z,2.90
2019-02-25T01:26:04.754Z,3.00
2019-02-25T01:27:08.333Z,3.00
2019-02-25T01:28:11.952Z,3.00
2019-02-25T01:29:15.620Z,3.00
2019-02-25T01:30:20.544Z,2.90
2019-02-25T01:31:24.249Z,2.80
2019-02-25T01:32:27.844Z,2.80
2019-02-25T01:33:31.506Z,2.80
2019-02-25T01:34:35.120Z,2.80
2019-02-25T01:35:38.698Z,2.80
2019-02-25T01:36:42.345Z,2.80
2019-02-25T01:37:46.010Z,2.80
2019-02-25T01:38:49.604Z,2.90
2019-02-25T01:39:53.212Z,2.80
2019-02-25T01:40:56.839Z,2.80
2019-02-25T01:42:00.523Z,2.60
2019-02-25T01:43:04.189Z,2.50
2019-02-25T01:44:07.804Z,2.50
2019-02-25T01:45:13.375Z,2.50
2019-02-25T01:46:16.960Z,2.50
2019-02-25T01:47:20.553Z,2.50
2019-02-25T01:48:24.150Z,2.60
2019-02-25T01:49:27.757Z,2.60
2019-02-25T01:50:31.394Z,2.60
2019-02-25T01:51:35.079Z,2.60
2019-02-25T01:52:38.680Z,2.50
2019-02-25T01:53:42.295Z,2.50
2019-02-25T01:54:45.912Z,2.50
2019-02-25T01:55:49.500Z,2.50
2019-02-25T01:56:53.189Z,2.50
2019-02-25T01:57:56.932Z,2.50
2019-02-25T01:59:00.524Z,2.50
2019-02-25T02:00:07.312Z,2.50
2019-02-25T02:01:10.933Z,2.50
2019-02-25T02:02:14.558Z,2.50
2019-02-25T02:03:18.189Z,2.50
2019-02-25T02:04:21.815Z,2.50
2019-02-25T02:05:25.432Z,2.50
2019-02-25T02:06:29.021Z,2.50
2019-02-25T02:07:32.601Z,2.40
2019-02-25T02:08:36.260Z,2.40
2019-02-25T02:09:39.881Z,2.50
2019-02-25T02:10:43.523Z,2.50
2019-02-25T02:11:47.116Z,2.50
2019-02-25T02:12:50.747Z,2.50
2019-02-25T02:13:54.331Z,2.50
2019-02-25T02:14:57.919Z,2.50
2019-02-25T02:16:01.551Z,2.40
2019-02-25T02:17:05.234Z,2.30
2019-02-25T02:18:08.869Z,2.30
2019-02-25T02:19:12.459Z,2.30
2019-02-25T02:20:17.156Z,2.30
2019-02-25T02:21:20.771Z,2.20
2019-02-25T02:22:24.361Z,2.20
2019-02-25T02:23:28.030Z,2.30
2019-02-25T02:24:31.664Z,2.30
2019-02-25T02:25:35.257Z,2.20
2019-02-25T02:26:38.873Z,2.20
2019-02-25T02:27:42.522Z,2.10
2019-02-25T02:28:46.185Z,2.10
2019-02-25T02:29:49.853Z,2.10
2019-02-25T02:30:53.434Z,2.10
2019-02-25T02:31:57.090Z,2.10
2019-02-25T02:33:00.695Z,2.10
2019-02-25T02:34:04.321Z,2.10
2019-02-25T02:35:08.006Z,2.00
2019-02-25T02:36:11.889Z,2.10
2019-02-25T02:37:15.562Z,2.10
2019-02-25T02:38:19.236Z,2.10
2019-02-25T02:39:22.853Z,2.10
2019-02-25T02:40:26.534Z,2.20
2019-02-25T02:41:31.697Z,2.20
2019-02-25T02:42:35.349Z,2.10
2019-02-25T02:43:38.975Z,2.10
2019-02-25T02:44:44.230Z,2.10
2019-02-25T02:46:03.021Z,2.10
2019-02-25T02:47:24.614Z,2.10
2019-02-25T02:48:37.226Z,2.10
2019-02-25T02:49:40.835Z,2.10
2019-02-25T02:50:44.434Z,2.10
2019-02-25T02:51:48.050Z,2.10
2019-02-25T02:52:51.711Z,2.00
2019-02-25T02:53:55.340Z,2.00
2019-02-25T02:54:58.936Z,1.90
2019-02-25T02:56:02.555Z,1.90
2019-02-25T02:57:06.233Z,1.90
2019-02-25T02:58:09.862Z,1.90
2019-02-25T02:59:13.500Z,1.90
2019-02-25T03:00:18.533Z,1.90
2019-02-25T03:01:22.113Z,1.90
2019-02-25T03:02:25.734Z,2.00
2019-02-25T03:03:29.380Z,2.00
2019-02-25T03:04:32.984Z,2.00
2019-02-25T03:05:36.620Z,2.00
2019-02-25T03:06:40.204Z,2.10
2019-02-25T03:07:43.887Z,2.10
2019-02-25T03:08:47.500Z,2.10
2019-02-25T03:09:51.168Z,2.20
2019-02-25T03:10:54.791Z,2.20
2019-02-25T03:11:58.377Z,2.20
2019-02-25T03:13:01.980Z,2.10
2019-02-25T03:14:05.557Z,2.10
2019-02-25T03:15:12.238Z,2.10
2019-02-25T03:16:15.922Z,2.10
2019-02-25T03:17:19.506Z,2.00
2019-02-25T03:18:23.129Z,2.10
2019-02-25T03:19:26.781Z,2.10
2019-02-25T03:20:30.369Z,2.10
2019-02-25T03:21:34.034Z,2.00
2019-02-25T03:22:37.622Z,2.00
2019-02-25T03:23:41.241Z,2.00
2019-02-25T03:24:44.829Z,2.10
2019-02-25T03:25:48.412Z,2.10
2019-02-25T03:26:52.025Z,2.00
2019-02-25T03:27:55.627Z,2.00
2019-02-25T03:28:59.233Z,1.90
2019-02-25T03:30:03.042Z,1.90
2019-02-25T03:31:06.639Z,1.90
2019-02-25T03:32:10.236Z,1.80
2019-02-25T03:33:13.805Z,1.90
2019-02-25T03:34:17.474Z,1.90
2019-02-25T03:35:21.134Z,1.90
2019-02-25T03:36:24.744Z,1.80
2019-02-25T03:37:28.383Z,1.90
2019-02-25T03:38:32.096Z,1.90
2019-02-25T03:39:35.728Z,1.90
2019-02-25T03:40:39.334Z,1.90
2019-02-25T03:41:42.909Z,1.90
2019-02-25T03:42:46.582Z,1.80
2019-02-25T03:43:50.202Z,1.80
2019-02-25T03:44:53.862Z,1.80
2019-02-25T03:45:57.486Z,1.70
2019-02-25T03:47:01.084Z,1.80
2019-02-25T03:48:04.749Z,1.80
2019-02-25T03:49:08.408Z,1.70
2019-02-25T03:50:12.171Z,1.70
2019-02-25T03:51:15.768Z,1.70
2019-02-25T03:52:19.360Z,1.80
2019-02-25T03:53:23.010Z,1.70
2019-02-25T03:54:26.657Z,1.80
2019-02-25T03:55:30.315Z,1.80
2019-02-25T03:56:33.911Z,1.80
2019-02-25T03:57:37.675Z,1.80
2019-02-25T03:58:41.342Z,1.80
2019-02-25T03:59:44.994Z,1.80
2019-02-25T04:00:48.631Z,1.80
2019-02-25T04:01:52.217Z,1.80
2019-02-25T04:02:55.909Z,1.80
2019-02-25T04:03:59.493Z,1.80
2019-02-25T04:05:03.171Z,1.80
2019-02-25T04:06:06.855Z,1.70
2019-02-25T04:07:10.460Z,1.70
2019-02-25T04:08:14.144Z,1.70
2019-02-25T04:09:17.814Z,1.70
2019-02-25T04:10:21.569Z,1.80
2019-02-25T04:11:25.208Z,1.70
2019-02-25T04:12:28.837Z,1.70
2019-02-25T04:13:32.429Z,1.60
2019-02-25T04:14:36.071Z,1.60
2019-02-25T04:15:41.334Z,1.60
2019-02-25T04:16:45.521Z,1.50
2019-02-25T04:17:49.195Z,1.60
2019-02-25T04:18:52.969Z,1.60
2019-02-25T04:19:56.554Z,1.60
2019-02-25T04:21:00.135Z,1.60
2019-02-25T04:22:03.863Z,1.60
2019-02-25T04:23:07.498Z,1.60
2019-02-25T04:24:11.144Z,1.60
2019-02-25T04:25:14.825Z,1.60
2019-02-25T04:26:18.423Z,1.60
2019-02-25T04:27:22.023Z,1.60
2019-02-25T04:28:25.639Z,1.60
2019-02-25T04:29:29.259Z,1.50
2019-02-25T04:30:32.882Z,1.60
2019-02-25T04:31:36.538Z,1.60
2019-02-25T04:32:40.276Z,1.60
2019-02-25T04:33:43.875Z,1.50
2019-02-25T04:34:47.468Z,1.50
2019-02-25T04:35:51.094Z,1.50
2019-02-25T04:36:54.743Z,1.50
2019-02-25T04:37:58.346Z,1.50
2019-02-25T04:39:01.949Z,1.60
2019-02-25T04:40:08.375Z,1.60
2019-02-25T04:41:11.919Z,1.60
2019-02-25T04:42:15.502Z,1.60
2019-02-25T04:43:19.090Z,1.60
2019-02-25T04:44:22.691Z,1.60
2019-02-25T04:45:26.389Z,1.60
2019-02-25T04:46:30.003Z,1.50
2019-02-25T04:47:33.612Z,1.50
2019-02-25T04:48:37.225Z,1.50
2019-02-25T04:49:40.847Z,1.50
2019-02-25T04:50:44.469Z,1.50
2019-02-25T04:51:48.051Z,1.40
2019-02-25T04:52:51.635Z,1.40
2019-02-25T04:53:55.259Z,1.40
2019-02-25T04:54:58.907Z,1.40
2019-02-25T04:56:02.538Z,1.40
2019-02-25T04:57:06.150Z,1.40
2019-02-25T04:58:09.792Z,1.40
2019-02-25T04:59:13.386Z,1.40
2019-02-25T05:00:22.407Z,1.40
2019-02-25T05:01:25.995Z,1.50
2019-02-25T05:02:29.585Z,1.50
2019-02-25T05:03:33.188Z,1.50
2019-02-25T05:04:36.816Z,1.40
2019-02-25T05:05:40.460Z,1.40
2019-02-25T05:06:44.073Z,1.40
2019-02-25T05:07:47.673Z,1.40
2019-02-25T05:08:51.263Z,1.40
2019-02-25T05:09:54.865Z,1.40
2019-02-25T05:10:58.489Z,1.40
2019-02-25T05:12:02.183Z,1.30
2019-02-25T05:13:06.870Z,1.30
2019-02-25T05:14:10.458Z,1.20
2019-02-25T05:15:19.025Z,1.20
2019-02-25T05:16:22.678Z,1.20
2019-02-25T05:17:26.401Z,1.20
2019-02-25T05:18:30.094Z,1.20
2019-02-25T05:19:33.742Z,1.30
2019-02-25T05:20:37.348Z,1.40
2019-02-25T05:21:40.956Z,1.40
2019-02-25T05:22:44.623Z,1.40
2019-02-25T05:23:48.217Z,1.40
2019-02-25T05:24:51.906Z,1.50
2019-02-25T05:25:55.489Z,1.50
2019-02-25T05:26:59.132Z,1.50
2019-02-25T05:28:02.705Z,1.50
2019-02-25T05:29:06.352Z,1.60
2019-02-25T05:30:12.571Z,1.60
2019-02-25T05:31:16.154Z,1.60
2019-02-25T05:32:19.740Z,1.60
2019-02-25T05:33:23.359Z,1.60
2019-02-25T05:34:26.941Z,1.60
2019-02-25T05:35:30.546Z,1.60
2019-02-25T05:36:34.135Z,1.60
2019-02-25T05:37:37.764Z,1.70
2019-02-25T05:38:41.483Z,1.70
2019-02-25T05:39:45.127Z,1.80
2019-02-25T05:40:48.707Z,1.80
2019-02-25T05:41:52.357Z,1.80
2019-02-25T05:42:55.925Z,1.70
2019-02-25T05:43:59.560Z,1.60
2019-02-25T05:45:03.155Z,1.60
2019-02-25T05:46:06.736Z,1.50
2019-02-25T05:47:10.358Z,1.50
2019-02-25T05:48:14.020Z,1.40
2019-02-25T05:49:17.626Z,1.40
2019-02-25T05:50:21.964Z,1.30
2019-02-25T05:51:25.582Z,1.30
2019-02-25T05:52:29.235Z,1.30
2019-02-25T05:53:32.926Z,1.20
2019-02-25T05:54:36.596Z,1.20
2019-02-25T05:55:40.270Z,1.20
2019-02-25T05:56:44.266Z,1.20
2019-02-25T05:57:47.848Z,1.20
2019-02-25T05:58:51.483Z,1.10
2019-02-25T05:59:55.111Z,1.10
2019-02-25T06:00:58.706Z,1.10
2019-02-25T06:02:02.321Z,1.00
2019-02-25T06:03:06.038Z,1.10
2019-02-25T06:04:09.750Z,1.10
2019-02-25T06:05:13.338Z,1.20
2019-02-25T06:06:16.979Z,1.30
2019-02-25T06:07:20.601Z,1.40
2019-02-25T06:08:24.251Z,1.40
2019-02-25T06:09:27.902Z,1.40
2019-02-25T06:10:31.509Z,1.40
2019-02-25T06:11:35.107Z,1.40
2019-02-25T06:12:38.720Z,1.30
2019-02-25T06:13:42.419Z,1.30
2019-02-25T06:14:46.042Z,1.30
2019-02-25T06:15:51.316Z,1.20
2019-02-25T06:16:55.161Z,1.10
2019-02-25T06:17:59.121Z,1.10
2019-02-25T06:19:02.738Z,1.10
2019-02-25T06:20:12.077Z,1.10
2019-02-25T06:21:15.840Z,1.10
2019-02-25T06:22:19.479Z,1.20
2019-02-25T06:23:23.088Z,1.10
2019-02-25T06:24:26.679Z,1.10
2019-02-25T06:25:30.760Z,1.10
2019-02-25T06:26:35.170Z,1.10
2019-02-25T06:27:38.755Z,1.10
2019-02-25T06:28:42.442Z,1.10
2019-02-25T06:29:46.515Z,1.10
2019-02-25T06:30:50.195Z,1.10
2019-02-25T06:31:54.204Z,1.10
2019-02-25T06:32:57.830Z,1.10
2019-02-25T06:34:01.430Z,1.10
2019-02-25T06:35:06.778Z,1.10
2019-02-25T06:36:10.624Z,1.10
2019-02-25T06:37:14.251Z,1.10
2019-02-25T06:38:17.895Z,1.00
2019-02-25T06:39:21.569Z,1.10
2019-02-25T06:40:25.176Z,1.10
2019-02-25T06:41:28.826Z,1.10
2019-02-25T06:42:32.431Z,1.10
2019-02-25T06:43:35.999Z,1.00
2019-02-25T06:44:39.523Z,1.00
2019-02-25T06:45:43.164Z,1.00
2019-02-25T06:46:46.878Z,1.00
2019-02-25T06:47:50.469Z,1.00
2019-02-25T06:48:54.082Z,1.10
2019-02-25T06:49:57.684Z,1.10
2019-02-25T06:51:01.329Z,1.20
2019-02-25T06:52:05.004Z,1.20
2019-02-25T06:53:08.650Z,1.20
2019-02-25T06:54:12.247Z,1.20
2019-02-25T06:55:16.651Z,1.20
2019-02-25T06:56:20.281Z,1.20
2019-02-25T06:57:23.891Z,1.30
2019-02-25T06:58:27.535Z,1.20
2019-02-25T06:59:31.153Z,1.20
2019-02-25T07:00:34.735Z,1.20
2019-02-25T07:01:38.459Z,1.20
2019-02-25T07:02:42.034Z,1.20
2019-02-25T07:03:47.415Z,1.20
2019-02-25T07:04:52.665Z,1.20
2019-02-25T07:06:03.549Z,1.30
2019-02-25T07:07:08.776Z,1.40
2019-02-25T07:08:14.100Z,1.40
2019-02-25T07:09:19.402Z,1.40
2019-02-25T07:10:33.693Z,1.30
2019-02-25T07:11:41.501Z,1.40
2019-02-25T07:12:46.752Z,1.40
2019-02-25T07:13:54.886Z,1.30
2019-02-25T07:15:00.303Z,1.30
2019-02-25T07:16:05.781Z,1.30
2019-02-25T07:17:27.428Z,1.30
2019-02-25T07:18:38.223Z,1.40
2019-02-25T07:19:46.757Z,1.40
2019-02-25T07:20:52.046Z,1.50
2019-02-25T07:21:59.810Z,1.50
2019-02-25T07:23:07.740Z,1.50
2019-02-25T07:24:21.762Z,1.60
2019-02-25T07:25:43.399Z,1.60
2019-02-25T07:26:57.618Z,1.60
2019-02-25T07:28:11.601Z,1.70
2019-02-25T07:29:25.752Z,1.70
2019-02-25T07:30:33.656Z,1.80
2019-02-25T07:31:48.070Z,1.80
2019-02-25T07:32:56.131Z,1.80
2019-02-25T07:34:13.449Z,1.80
2019-02-25T07:35:21.624Z,1.90
2019-02-25T07:36:32.447Z,1.90
2019-02-25T07:37:54.034Z,1.90
2019-02-25T07:38:59.305Z,1.90
2019-02-25T07:40:21.216Z,1.90
2019-02-25T07:41:32.234Z,1.90
2019-02-25T07:42:52.704Z,1.90
2019-02-25T07:43:57.960Z,1.80
2019-02-25T07:45:11.885Z,1.80
2019-02-25T07:46:22.976Z,1.70
2019-02-25T07:47:28.680Z,1.70
2019-02-25T07:48:42.952Z,1.70
2019-02-25T07:49:51.000Z,1.70
2019-02-25T07:50:56.229Z,1.80
2019-02-25T07:52:13.272Z,1.80
2019-02-25T07:53:30.450Z,1.80
2019-02-25T07:54:35.778Z,1.90
2019-02-25T07:55:40.994Z,1.90
2019-02-25T07:56:46.242Z,2.00
2019-02-25T07:57:53.991Z,2.10
2019-02-25T07:59:15.439Z,2.10
2019-02-25T08:00:26.702Z,2.10
2019-02-25T08:01:31.963Z,2.20
2019-02-25T08:02:39.905Z,2.20
2019-02-25T08:03:53.882Z,2.30
2019-02-25T08:04:59.104Z,2.40
2019-02-25T08:06:04.414Z,2.40
2019-02-25T08:07:18.398Z,2.40
2019-02-25T08:08:26.426Z,2.40
2019-02-25T08:09:31.708Z,2.50
2019-02-25T08:10:45.512Z,2.50
2019-02-25T08:11:59.783Z,2.50
2019-02-25T08:13:07.876Z,2.60
2019-02-25T08:14:18.825Z,2.60
2019-02-25T08:15:24.075Z,2.70
2019-02-25T08:16:29.326Z,2.70
2019-02-25T08:17:34.558Z,2.70
2019-02-25T08:18:55.960Z,2.80
2019-02-25T08:20:04.016Z,2.80
2019-02-25T08:21:09.253Z,2.80
2019-02-25T08:22:29.672Z,2.90
2019-02-25T08:23:34.992Z,2.90
2019-02-25T08:24:55.219Z,2.90
2019-02-25T08:26:12.461Z,3.00
2019-02-25T08:27:23.173Z,3.00
2019-02-25T08:28:32.631Z,3.00
2019-02-25T08:29:46.551Z,3.10
2019-02-25T08:30:57.599Z,3.10
2019-02-25T08:32:02.865Z,3.10
2019-02-25T08:33:14.067Z,3.10
2019-02-25T08:34:22.006Z,3.10
2019-02-25T08:35:48.494Z,3.20
2019-02-25T08:37:14.791Z,3.30
2019-02-25T08:38:25.468Z,3.40
2019-02-25T08:39:33.767Z,3.50
2019-02-25T08:40:42.131Z,3.50
2019-02-25T08:41:59.207Z,3.60
2019-02-25T08:43:18.421Z,3.60
2019-02-25T08:44:26.788Z,3.60
2019-02-25T08:45:32.046Z,3.60
2019-02-25T08:46:37.393Z,3.70
2019-02-25T08:47:48.507Z,3.70
2019-02-25T08:48:53.739Z,3.90
2019-02-25T08:49:57.441Z,3.90
2019-02-25T08:51:01.219Z,4.00
2019-02-25T08:52:04.936Z,4.00
2019-02-25T08:53:08.539Z,4.10
2019-02-25T08:54:12.132Z,4.10
2019-02-25T08:55:15.737Z,4.10
2019-02-25T08:56:19.318Z,4.20
2019-02-25T08:57:23.039Z,4.20
2019-02-25T08:58:26.739Z,4.20
2019-02-25T08:59:30.367Z,4.30
2019-02-25T09:00:34.026Z,4.30
2019-02-25T09:01:37.613Z,4.30
2019-02-25T09:02:41.236Z,4.30
2019-02-25T09:03:44.834Z,4.30
2019-02-25T09:04:49.296Z,4.40
2019-02-25T09:05:52.950Z,4.40
2019-02-25T09:06:56.579Z,4.50
2019-02-25T09:08:00.275Z,4.50
2019-02-25T09:09:05.611Z,4.60
2019-02-25T09:10:13.432Z,4.70
2019-02-25T09:11:17.257Z,4.70
2019-02-25T09:12:20.882Z,4.80
2019-02-25T09:13:24.472Z,4.90
2019-02-25T09:14:28.087Z,5.00
2019-02-25T09:15:32.512Z,5.00
2019-02-25T09:16:36.229Z,5.10
2019-02-25T09:17:45.689Z,5.20
2019-02-25T09:18:49.356Z,5.20
2019-02-25T09:19:53.062Z,5.30
2019-02-25T09:20:56.660Z,5.50
2019-02-25T09:22:00.246Z,5.60
2019-02-25T09:23:03.819Z,5.70
2019-02-25T09:24:07.441Z,5.80
2019-02-25T09:25:14.913Z,5.90
2019-02-25T09:26:18.481Z,6.00
2019-02-25T09:27:22.076Z,6.00
2019-02-25T09:28:25.723Z,6.10
2019-02-25T09:29:29.299Z,6.10
2019-02-25T09:30:32.915Z,6.20
2019-02-25T09:31:36.574Z,6.30
2019-02-25T09:32:40.181Z,6.30
2019-02-25T09:33:43.818Z,6.40
2019-02-25T09:34:47.459Z,6.50
2019-02-25T09:35:51.015Z,6.60
2019-02-25T09:36:54.613Z,6.80
2019-02-25T09:37:58.249Z,6.90
2019-02-25T09:39:01.829Z,7.00
2019-02-25T09:40:14.483Z,7.20
2019-02-25T09:41:18.072Z,7.50
2019-02-25T09:42:21.695Z,7.90
2019-02-25T09:43:25.370Z,8.60
2019-02-25T09:44:28.924Z,9.60
2019-02-25T09:45:32.679Z,10.90
2019-02-25T09:46:36.289Z,12.20
2019-02-25T09:47:39.889Z,13.20
2019-02-25T09:48:43.465Z,14.30
2019-02-25T09:49:47.096Z,15.00
2019-02-25T09:50:50.790Z,15.60
2019-02-25T09:51:54.399Z,16.10
2019-02-25T09:52:58.043Z,16.70
2019-02-25T09:54:01.664Z,17.10
2019-02-25T09:55:07.706Z,17.50
2019-02-25T09:56:11.302Z,18.00
2019-02-25T09:57:14.957Z,18.40
2019-02-25T09:58:18.614Z,18.70
2019-02-25T09:59:22.217Z,18.80
2019-02-25T10:00:25.818Z,19.00
2019-02-25T10:01:29.440Z,19.40
2019-02-25T10:02:33.034Z,19.70
2019-02-25T10:03:36.645Z,19.80
2019-02-25T10:04:40.228Z,20.00
2019-02-25T10:05:43.810Z,20.30
2019-02-25T10:06:47.448Z,20.40
2019-02-25T10:07:51.052Z,20.60
2019-02-25T10:08:54.692Z,20.80
2019-02-25T10:09:58.295Z,21.20
2019-02-25T10:11:01.882Z,21.60
2019-02-25T10:12:05.567Z,21.70
2019-02-25T10:13:09.252Z,21.80
2019-02-25T10:14:12.839Z,22.00
2019-02-25T10:15:21.182Z,22.00
2019-02-25T10:16:24.860Z,22.10
2019-02-25T10:17:28.471Z,22.20
2019-02-25T10:18:32.276Z,22.20
2019-02-25T10:19:35.862Z,22.40
2019-02-25T10:20:39.459Z,22.40
2019-02-25T10:21:43.108Z,22.40
2019-02-25T10:22:46.735Z,22.20
2019-02-25T10:23:50.316Z,22.20
2019-02-25T10:24:53.918Z,22.20
2019-02-25T10:25:57.556Z,22.80
2019-02-25T10:27:01.223Z,22.90
2019-02-25T10:28:04.893Z,23.00
2019-02-25T10:29:08.532Z,23.00
2019-02-25T10:30:14.684Z,23.10
2019-02-25T10:31:18.256Z,23.10
2019-02-25T10:32:23.668Z,23.30
2019-02-25T10:33:27.210Z,23.30
2019-02-25T10:34:30.798Z,23.70
2019-02-25T10:35:34.385Z,23.70
2019-02-25T10:36:37.977Z,23.60
2019-02-25T10:37:43.676Z,23.40
2019-02-25T10:38:46.894Z,23.30
2019-02-25T10:39:51.466Z,23.40
2019-02-25T10:40:55.066Z,23.20
2019-02-25T10:41:59.641Z,23.10
2019-02-25T10:43:04.052Z,23.00
2019-02-25T10:44:08.495Z,23.20
2019-02-25T10:45:17.142Z,23.00
2019-02-25T10:46:20.809Z,23.10
2019-02-25T10:47:24.419Z,23.20
2019-02-25T10:48:28.011Z,23.50
2019-02-25T10:49:33.570Z,23.60
2019-02-25T10:50:38.640Z,23.60
2019-02-25T10:51:43.938Z,23.50
2019-02-25T10:52:49.382Z,23.60
2019-02-25T10:53:53.632Z,23.60
2019-02-25T10:54:58.289Z,23.60
2019-02-25T10:56:14.441Z,23.20
2019-02-25T10:57:19.347Z,23.10
2019-02-25T10:58:25.186Z,23.20
2019-02-25T10:59:29.847Z,23.40
2019-02-25T11:00:35.197Z,23.30
2019-02-25T11:01:41.290Z,23.20
2019-02-25T11:02:46.784Z,23.20
2019-02-25T11:03:52.050Z,23.40
2019-02-25T11:04:56.087Z,23.50
2019-02-25T11:06:02.864Z,23.50
2019-02-25T11:07:07.833Z,23.40
2019-02-25T11:08:13.872Z,23.60
2019-02-25T11:09:31.369Z,23.50
2019-02-25T11:10:36.752Z,23.70
2019-02-25T11:11:41.514Z,23.60
2019-02-25T11:12:45.197Z,23.40
2019-02-25T11:13:48.896Z,23.40
2019-02-25T11:14:52.559Z,23.30
2019-02-25T11:15:56.146Z,23.40
2019-02-25T11:16:59.829Z,23.30
2019-02-25T11:18:03.663Z,23.10
2019-02-25T11:19:07.476Z,22.80
2019-02-25T11:20:14.393Z,22.90
2019-02-25T11:21:17.999Z,22.80
2019-02-25T11:22:21.607Z,22.60
2019-02-25T11:23:25.195Z,22.60
2019-02-25T11:24:28.820Z,22.20
2019-02-25T11:25:32.416Z,22.10
2019-02-25T11:26:37.013Z,22.00
2019-02-25T11:27:40.999Z,21.80
2019-02-25T11:28:44.675Z,21.60
2019-02-25T11:29:48.515Z,21.50
2019-02-25T11:30:53.743Z,21.50
2019-02-25T11:31:57.495Z,21.40
2019-02-25T11:33:01.092Z,21.00
2019-02-25T11:34:05.794Z,20.60
2019-02-25T11:35:12.995Z,20.30
2019-02-25T11:36:17.712Z,19.80
2019-02-25T11:37:24.483Z,19.50
2019-02-25T11:38:28.688Z,19.20
2019-02-25T11:39:33.187Z,18.80
2019-02-25T11:40:38.406Z,18.50
2019-02-25T11:41:41.996Z,18.30
2019-02-25T11:42:45.722Z,18.30
2019-02-25T11:43:50.972Z,18.20
2019-02-25T11:44:56.499Z,18.30
2019-02-25T11:45:59.881Z,18.20
2019-02-25T11:47:03.525Z,18.20
2019-02-25T11:48:07.140Z,18.20
2019-02-25T11:49:10.751Z,18.20
2019-02-25T11:50:19.041Z,18.40
2019-02-25T11:51:22.790Z,18.20
2019-02-25T11:52:26.474Z,18.40
2019-02-25T11:53:30.067Z,18.60
2019-02-25T11:54:33.611Z,18.80
2019-02-25T11:55:37.320Z,18.90
2019-02-25T11:56:41.048Z,19.00
2019-02-25T11:57:44.929Z,19.20
2019-02-25T11:58:48.544Z,19.40
2019-02-25T11:59:52.141Z,19.60
2019-02-25T12:00:55.775Z,19.50
2019-02-25T12:01:59.377Z,19.20
2019-02-25T12:03:02.987Z,19.30
2019-02-25T12:04:06.707Z,19.40
2019-02-25T12:05:11.029Z,19.60
2019-02-25T12:06:14.660Z,19.70
2019-02-25T12:07:18.375Z,19.90
2019-02-25T12:08:21.980Z,20.00
2019-02-25T12:09:25.588Z,20.10
2019-02-25T12:10:29.173Z,20.20
2019-02-25T12:11:32.855Z,20.20
2019-02-25T12:12:36.444Z,20.30
2019-02-25T12:13:40.029Z,20.50
2019-02-25T12:14:43.636Z,20.50
2019-02-25T12:15:47.240Z,20.80
2019-02-25T12:16:50.861Z,21.00
2019-02-25T12:17:54.526Z,21.10
2019-02-25T12:18:58.135Z,21.30
2019-02-25T12:20:01.736Z,21.50
2019-02-25T12:21:05.981Z,21.50
2019-02-25T12:22:09.586Z,21.70
2019-02-25T12:23:13.182Z,21.80
2019-02-25T12:24:16.836Z,22.10
2019-02-25T12:25:22.685Z,22.00
2019-02-25T12:26:26.280Z,22.50
2019-02-25T12:27:29.857Z,23.00
2019-02-25T12:28:33.433Z,23.40
2019-02-25T12:29:37.131Z,23.50
2019-02-25T12:30:40.842Z,23.60
2019-02-25T12:31:44.434Z,24.10
2019-02-25T12:32:48.043Z,24.20
2019-02-25T12:33:51.668Z,24.50
2019-02-25T12:34:55.278Z,24.90
2019-02-25T12:35:58.868Z,24.80
2019-02-25T12:37:02.485Z,24.70
2019-02-25T12:38:06.098Z,24.30
2019-02-25T12:39:09.725Z,24.00
2019-02-25T12:40:14.767Z,24.10
2019-02-25T12:41:18.385Z,23.90
2019-02-25T12:42:22.125Z,24.00
2019-02-25T12:43:25.739Z,24.00
2019-02-25T12:44:29.354Z,24.00
2019-02-25T12:45:32.957Z,24.30
2019-02-25T12:46:36.568Z,24.40
2019-02-25T12:47:40.272Z,24.50
2019-02-25T12:48:43.882Z,24.50
2019-02-25T12:49:47.482Z,24.60
2019-02-25T12:50:51.117Z,24.60
2019-02-25T12:51:54.750Z,24.60
2019-02-25T12:52:58.325Z,24.80
2019-02-25T12:54:01.964Z,25.00
2019-02-25T12:55:08.804Z,25.30
2019-02-25T12:56:12.397Z,25.10
2019-02-25T12:57:16.037Z,25.10
2019-02-25T12:58:19.654Z,25.10
2019-02-25T12:59:23.237Z,25.10
2019-02-25T13:00:26.967Z,25.10
2019-02-25T13:01:30.557Z,25.50
2019-02-25T13:02:34.200Z,25.50
2019-02-25T13:03:37.782Z,25.00
2019-02-25T13:04:41.388Z,24.30
2019-02-25T13:05:45.127Z,24.50
2019-02-25T13:06:48.714Z,24.40
2019-02-25T13:07:52.305Z,24.60
2019-02-25T13:08:55.884Z,24.40
2019-02-25T13:09:59.489Z,24.50
2019-02-25T13:11:03.107Z,24.50
2019-02-25T13:12:06.692Z,24.40
2019-02-25T13:13:10.291Z,24.70
2019-02-25T13:14:13.919Z,24.60
2019-02-25T13:15:18.664Z,24.50
2019-02-25T13:16:22.241Z,24.50
2019-02-25T13:17:25.881Z,24.60
2019-02-25T13:18:29.460Z,24.50
2019-02-25T13:19:33.064Z,24.50
2019-02-25T13:20:36.663Z,24.30
2019-02-25T13:21:40.367Z,24.20
2019-02-25T13:22:43.914Z,24.30
2019-02-25T13:23:47.526Z,24.30
2019-02-25T13:24:51.148Z,24.50
2019-02-25T13:25:54.799Z,24.80
2019-02-25T13:26:58.396Z,24.80
2019-02-25T13:28:04.044Z,24.60
2019-02-25T13:29:07.248Z,25.00
2019-02-25T13:30:15.461Z,25.00
2019-02-25T13:31:19.065Z,24.50
2019-02-25T13:32:22.656Z,24.40
2019-02-25T13:33:26.493Z,24.10
2019-02-25T13:34:30.283Z,24.30
2019-02-25T13:35:33.858Z,24.30
2019-02-25T13:36:37.456Z,24.40
2019-02-25T13:37:41.107Z,24.50
2019-02-25T13:38:44.754Z,24.40
2019-02-25T13:39:48.347Z,24.30
2019-02-25T13:40:51.963Z,24.30
2019-02-25T13:41:55.582Z,24.30
2019-02-25T13:42:59.312Z,24.30
2019-02-25T13:44:02.898Z,24.50
2019-02-25T13:45:09.673Z,24.30
2019-02-25T13:46:13.261Z,24.30
2019-02-25T13:47:17.087Z,24.60
2019-02-25T13:48:20.705Z,25.00
2019-02-25T13:49:24.302Z,24.90
2019-02-25T13:50:27.900Z,24.70
2019-02-25T13:51:31.528Z,24.80
2019-02-25T13:52:35.115Z,24.50
2019-02-25T13:53:38.695Z,24.30
2019-02-25T13:54:42.299Z,24.70
2019-02-25T13:55:45.873Z,24.50
2019-02-25T13:56:49.497Z,24.70
2019-02-25T13:57:53.191Z,24.80
2019-02-25T13:58:56.954Z,24.70
2019-02-25T14:00:01.180Z,24.50
2019-02-25T14:01:04.995Z,24.40
2019-02-25T14:02:08.575Z,24.50
2019-02-25T14:03:12.350Z,24.80
2019-02-25T14:04:15.995Z,24.90
2019-02-25T14:05:19.934Z,25.00
2019-02-25T14:06:23.496Z,25.20
2019-02-25T14:07:27.122Z,25.20
2019-02-25T14:08:30.733Z,25.30
2019-02-25T14:09:34.377Z,25.50
2019-02-25T14:10:38.037Z,25.80
2019-02-25T14:11:41.625Z,26.10
2019-02-25T14:12:45.544Z,26.50